createdAt,value
2017-09-16T00:04:51.661Z,2.97
2017-09-16T00:09:52.781Z,3.33
2017-09-16T00:14:53.866Z,2.80
2017-09-16T00:19:54.954Z,3.07
2017-09-16T00:24:56.047Z,3.47
2017-09-16T00:29:57.171Z,3.40
2017-09-16T00:34:58.270Z,3.93
2017-09-16T00:39:59.425Z,3.90
2017-09-16T00:45:15.448Z,3.50
2017-09-16T00:50:16.536Z,4.10
2017-09-16T00:55:18.404Z,4.17
2017-09-16T01:00:19.507Z,3.50
2017-09-16T01:05:20.650Z,3.13
2017-09-16T01:10:22.519Z,3.57
2017-09-16T01:15:23.638Z,3.63
2017-09-16T01:20:24.759Z,3.10
2017-09-16T01:25:25.887Z,3.20
2017-09-16T01:30:26.983Z,3.43
2017-09-16T01:35:28.098Z,3.00
2017-09-16T01:40:29.201Z,3.57
2017-09-16T01:45:30.282Z,3.20
2017-09-16T01:50:31.373Z,3.00
2017-09-16T01:55:33.214Z,3.03
2017-09-16T02:00:34.279Z,3.00
2017-09-16T02:05:35.370Z,2.93
2017-09-16T02:10:37.193Z,3.30
2017-09-16T02:15:38.280Z,3.10
2017-09-16T02:20:39.376Z,3.13
2017-09-16T02:25:40.475Z,3.73
2017-09-16T02:30:41.985Z,3.10
2017-09-16T02:35:43.097Z,3.80
2017-09-16T02:40:44.924Z,3.20
2017-09-16T02:45:46.039Z,3.00
2017-09-16T02:50:47.192Z,3.10
2017-09-16T02:55:48.297Z,3.77
2017-09-16T03:00:49.386Z,3.30
2017-09-16T03:05:50.523Z,3.40
2017-09-16T03:10:52.336Z,2.77
2017-09-16T03:15:53.407Z,2.83
2017-09-16T03:20:54.515Z,2.70
2017-09-16T03:25:55.595Z,3.00
2017-09-16T03:30:57.424Z,2.60
2017-09-16T03:35:58.539Z,2.70
2017-09-16T03:41:00.358Z,3.10
2017-09-16T03:46:01.457Z,2.60
2017-09-16T03:51:02.570Z,3.70
2017-09-16T03:56:03.677Z,3.20
2017-09-16T04:01:04.783Z,3.50
2017-09-16T04:06:06.613Z,3.77
2017-09-16T04:11:07.702Z,3.00
2017-09-16T04:16:08.790Z,3.33
2017-09-16T04:21:12.626Z,3.07
2017-09-16T04:26:14.442Z,3.93
2017-09-16T04:31:15.520Z,3.20
2017-09-16T04:36:16.623Z,3.57
2017-09-16T04:41:17.703Z,3.10
2017-09-16T04:46:19.567Z,3.30
2017-09-16T04:51:20.654Z,3.40
2017-09-16T04:56:22.470Z,3.40
2017-09-16T05:01:24.554Z,3.17
2017-09-16T05:06:26.323Z,3.30
2017-09-16T05:11:27.447Z,2.83
2017-09-16T05:16:28.523Z,3.40
2017-09-16T05:21:29.599Z,3.00
2017-09-16T05:26:31.451Z,2.50
2017-09-16T05:31:32.543Z,2.40
2017-09-16T05:36:34.369Z,3.43
2017-09-16T05:41:35.474Z,3.07
2017-09-16T05:46:36.562Z,3.13
2017-09-16T05:51:38.384Z,2.90
2017-09-16T05:56:39.511Z,3.03
2017-09-16T06:01:41.342Z,3.40
2017-09-16T06:06:42.396Z,3.70
2017-09-16T06:11:44.286Z,3.60
2017-09-16T06:16:45.379Z,3.77
2017-09-16T06:21:46.565Z,3.47
2017-09-16T06:26:48.625Z,3.30
2017-09-16T06:31:49.726Z,3.70
2017-09-16T06:36:52.529Z,4.57
2017-09-16T06:41:53.597Z,3.63
2017-09-16T06:46:55.393Z,4.00
2017-09-16T06:51:57.670Z,3.60
2017-09-16T06:56:59.519Z,4.57
2017-09-16T07:02:00.594Z,3.30
2017-09-16T07:07:01.688Z,4.13
2017-09-16T07:12:02.781Z,3.70
2017-09-16T07:17:03.865Z,4.90
2017-09-16T07:22:04.937Z,4.80
2017-09-16T07:27:06.009Z,5.60
2017-09-16T07:32:07.098Z,4.87
2017-09-16T07:37:08.189Z,4.50
2017-09-16T07:42:09.510Z,5.97
2017-09-16T07:47:10.690Z,5.30
2017-09-16T07:52:11.784Z,4.80
2017-09-16T07:57:13.662Z,4.40
2017-09-16T08:02:15.490Z,4.87
2017-09-16T08:07:16.863Z,3.90
2017-09-16T08:12:18.774Z,4.07
2017-09-16T08:17:20.005Z,4.40
2017-09-16T08:22:21.181Z,4.00
2017-09-16T08:27:22.286Z,4.30
2017-09-16T08:32:23.408Z,5.17
2017-09-16T08:37:24.515Z,4.90
2017-09-16T08:42:25.590Z,4.60
2017-09-16T08:47:26.699Z,5.10
2017-09-16T08:52:27.780Z,5.10
2017-09-16T08:57:29.623Z,4.57
2017-09-16T09:02:31.434Z,7.87
2017-09-16T09:07:32.525Z,5.27
2017-09-16T09:12:33.633Z,5.07
2017-09-16T09:17:35.468Z,4.97
2017-09-16T09:22:36.588Z,4.47
2017-09-16T09:27:38.426Z,6.00
2017-09-16T09:32:39.521Z,4.73
2017-09-16T09:37:40.607Z,4.00
2017-09-16T09:42:42.431Z,4.33
2017-09-16T09:47:43.577Z,4.50
2017-09-16T09:52:44.706Z,5.37
2017-09-16T09:57:45.801Z,5.40
2017-09-16T10:02:46.889Z,8.70
2017-09-16T10:07:48.968Z,5.33
2017-09-16T10:12:50.069Z,5.37
2017-09-16T10:17:51.150Z,6.23
2017-09-16T10:22:53.026Z,6.30
2017-09-16T10:27:54.106Z,7.20
2017-09-16T10:32:55.179Z,7.00
2017-09-16T10:37:56.981Z,6.60
2017-09-16T10:42:58.062Z,6.70
2017-09-16T10:47:59.194Z,6.23
2017-09-16T10:53:01.002Z,6.13
2017-09-16T10:58:02.109Z,5.70
2017-09-16T11:03:03.211Z,5.93
2017-09-16T11:08:05.044Z,4.97
2017-09-16T11:13:06.119Z,4.90
2017-09-16T11:18:07.219Z,3.60
2017-09-16T11:23:08.301Z,4.03
2017-09-16T11:28:10.142Z,2.50
2017-09-16T11:33:11.280Z,2.90
2017-09-16T11:38:12.372Z,2.23
2017-09-16T11:43:13.444Z,1.83
2017-09-16T11:48:14.574Z,1.80
2017-09-16T11:53:15.694Z,1.93
2017-09-16T11:58:16.837Z,1.80
2017-09-16T12:03:19.334Z,2.13
2017-09-16T12:08:24.133Z,2.53
2017-09-16T12:13:25.206Z,2.57
2017-09-16T12:18:26.326Z,2.60
2017-09-16T12:23:27.423Z,1.80
2017-09-16T12:28:29.232Z,1.70
2017-09-16T12:33:30.320Z,1.10
2017-09-16T12:38:31.410Z,1.70
2017-09-16T12:43:32.479Z,1.50
2017-09-16T12:48:33.569Z,1.87
2017-09-16T12:53:35.382Z,1.47
2017-09-16T12:58:36.507Z,2.07
2017-09-16T13:03:37.579Z,2.30
2017-09-16T13:08:39.412Z,2.10
2017-09-16T13:13:40.502Z,2.53
2017-09-16T13:18:43.626Z,2.43
2017-09-16T13:23:44.703Z,1.97
2017-09-16T13:28:45.891Z,2.40
2017-09-16T13:33:47.000Z,2.33
2017-09-16T13:38:48.109Z,2.17
2017-09-16T13:43:49.958Z,2.30
2017-09-16T13:48:51.085Z,2.37
2017-09-16T13:53:52.175Z,2.43
2017-09-16T13:58:53.325Z,1.83
2017-09-16T14:03:54.420Z,3.20
2017-09-16T14:08:55.515Z,2.00
2017-09-16T14:13:57.322Z,2.40
2017-09-16T14:18:58.389Z,2.00
2017-09-16T14:23:59.467Z,1.97
2017-09-16T14:29:01.281Z,2.30
2017-09-16T14:34:02.358Z,2.40
2017-09-16T14:39:03.498Z,2.40
2017-09-16T14:44:04.548Z,2.50
2017-09-16T14:49:05.633Z,2.30
2017-09-16T14:54:06.710Z,2.10
2017-09-16T14:59:07.796Z,1.63
2017-09-16T15:04:08.871Z,1.83
2017-09-16T15:09:10.701Z,1.77
2017-09-16T15:14:11.753Z,1.43
2017-09-16T15:19:12.831Z,2.57
2017-09-16T15:24:13.903Z,2.20
2017-09-16T15:29:14.994Z,2.10
2017-09-16T15:34:16.067Z,1.83
2017-09-16T15:39:17.944Z,1.77
2017-09-16T15:44:19.080Z,1.43
2017-09-16T15:49:20.190Z,1.80
2017-09-16T15:54:21.351Z,1.30
2017-09-16T15:59:22.482Z,1.50
2017-09-16T16:04:24.578Z,1.00
2017-09-16T16:09:25.726Z,1.10
2017-09-16T16:14:26.849Z,1.03
2017-09-16T16:19:27.971Z,1.10
2017-09-16T16:24:29.071Z,0.93
2017-09-16T16:29:30.202Z,1.40
2017-09-16T16:34:31.318Z,1.27
2017-09-16T16:39:33.170Z,1.20
2017-09-16T16:44:34.274Z,1.60
2017-09-16T16:49:36.145Z,1.30
2017-09-16T16:54:37.234Z,1.60
2017-09-16T16:59:38.363Z,1.80
2017-09-16T17:04:39.459Z,2.27
2017-09-16T17:09:40.572Z,2.10
2017-09-16T17:14:41.676Z,1.93
2017-09-16T17:19:42.767Z,2.10
2017-09-16T17:24:43.869Z,2.00
2017-09-16T17:29:44.974Z,2.73
2017-09-16T17:34:46.090Z,2.20
2017-09-16T17:39:47.193Z,2.63
2017-09-16T17:44:48.295Z,2.50
2017-09-16T17:49:50.119Z,2.60
2017-09-16T17:54:51.249Z,3.00
2017-09-16T17:59:52.347Z,3.10
2017-09-16T18:04:53.437Z,3.80
2017-09-16T18:09:54.517Z,4.10
2017-09-16T18:14:55.615Z,4.07
2017-09-16T18:19:56.718Z,3.20
2017-09-16T18:24:57.834Z,3.20
2017-09-16T18:29:58.953Z,4.80
2017-09-16T18:35:00.058Z,4.60
2017-09-16T18:40:01.905Z,5.67
2017-09-16T18:45:02.995Z,4.03
2017-09-16T18:50:04.088Z,6.33
2017-09-16T18:55:05.246Z,4.53
2017-09-16T19:00:06.360Z,18.73
2017-09-16T19:05:07.438Z,12.30
2017-09-16T19:10:08.553Z,24.10
2017-09-16T19:15:09.650Z,5.97
2017-09-16T19:20:10.776Z,9.23
2017-09-16T19:25:12.650Z,25.77
2017-09-16T19:30:13.757Z,12.13
2017-09-16T19:35:14.864Z,9.47
2017-09-16T19:40:15.950Z,7.97
2017-09-16T19:45:17.061Z,8.80
2017-09-16T19:50:18.165Z,10.17
2017-09-16T19:55:19.270Z,10.30
2017-09-16T20:00:20.399Z,8.60
2017-09-16T20:05:21.552Z,7.27
2017-09-16T20:10:22.645Z,6.10
2017-09-16T20:15:24.424Z,6.80
2017-09-16T20:20:25.567Z,12.50
2017-09-16T20:25:26.682Z,9.60
2017-09-16T20:30:29.365Z,6.00
2017-09-16T20:35:31.249Z,5.47
2017-09-16T20:40:33.665Z,5.53
2017-09-16T20:45:34.849Z,6.00
2017-09-16T20:50:35.985Z,8.83
2017-09-16T20:55:37.823Z,5.50
2017-09-16T21:00:38.965Z,6.07
2017-09-16T21:05:40.210Z,6.50
2017-09-16T21:10:41.365Z,5.90
2017-09-16T21:15:43.266Z,6.10
2017-09-16T21:20:45.495Z,5.60
2017-09-16T21:25:46.662Z,5.43
2017-09-16T21:30:47.748Z,4.43
2017-09-16T21:35:48.889Z,4.30
2017-09-16T21:40:49.962Z,3.67
2017-09-16T21:45:51.104Z,4.47
2017-09-16T21:50:52.201Z,4.43
2017-09-16T21:55:53.317Z,3.40
2017-09-16T22:00:54.445Z,3.70
2017-09-16T22:05:55.595Z,4.70
2017-09-16T22:10:56.758Z,4.17
2017-09-16T22:15:57.872Z,4.97
2017-09-16T22:20:59.717Z,4.40
2017-09-16T22:26:00.814Z,4.87
2017-09-16T22:31:01.956Z,5.00
2017-09-16T22:36:03.074Z,5.13
2017-09-16T22:41:04.923Z,5.43
2017-09-16T22:46:06.232Z,5.43
2017-09-16T22:51:07.361Z,4.90
2017-09-16T22:56:08.484Z,6.50
2017-09-16T23:01:10.335Z,7.00
2017-09-16T23:06:11.592Z,7.00
2017-09-16T23:11:12.672Z,6.90
2017-09-16T23:16:14.501Z,6.23
2017-09-16T23:21:15.632Z,6.87
2017-09-16T23:26:16.703Z,6.67
2017-09-16T23:31:17.800Z,6.07
2017-09-16T23:36:19.094Z,6.50
2017-09-16T23:41:20.183Z,5.43
2017-09-16T23:46:22.034Z,4.77
2017-09-16T23:51:23.138Z,6.87
2017-09-16T23:56:24.251Z,6.73
